createdAt,value
2022-12-28T00:02:10.668Z,98.50
2022-12-28T00:13:38.888Z,98.60
2022-12-28T00:23:40.154Z,98.60
2022-12-28T00:26:19.637Z,98.60
2022-12-28T00:29:37.188Z,98.60
2022-12-28T00:36:21.828Z,98.60
2022-12-28T00:39:36.677Z,98.60
2022-12-28T00:46:37.402Z,98.50
2022-12-28T00:49:25.796Z,98.60
2022-12-28T00:52:28.034Z,98.60
2022-12-28T01:11:01.861Z,98.70
2022-12-28T01:27:19.731Z,98.70
2022-12-28T01:32:28.005Z,98.70
2022-12-28T01:35:51.823Z,98.70
2022-12-28T02:22:39.795Z,98.50
2022-12-28T02:25:34.944Z,98.50
2022-12-28T02:28:16.425Z,98.40
2022-12-28T02:30:57.277Z,98.60
2022-12-28T02:33:33.556Z,98.60
2022-12-28T02:36:07.609Z,98.60
2022-12-28T02:38:46.653Z,98.50
2022-12-28T02:41:24.717Z,98.50
2022-12-28T02:43:55.519Z,98.40
2022-12-28T02:46:47.937Z,98.50
2022-12-28T02:49:43.902Z,98.60
2022-12-28T02:52:23.399Z,98.60
2022-12-28T02:55:33.847Z,98.70
2022-12-28T02:58:20.535Z,98.60
2022-12-28T03:01:22.394Z,98.90
2022-12-28T03:04:06.185Z,98.60
2022-12-28T03:07:04.952Z,99.00
2022-12-28T03:09:40.066Z,98.60
2022-12-28T03:12:14.819Z,98.60
2022-12-28T03:14:48.799Z,98.70
2022-12-28T03:17:39.199Z,98.70
2022-12-28T03:20:44.137Z,98.60
2022-12-28T03:23:34.826Z,98.60
2022-12-28T03:26:25.390Z,98.70
2022-12-28T03:29:32.998Z,98.60
2022-12-28T03:32:04.393Z,98.60
2022-12-28T03:34:42.374Z,98.70
2022-12-28T03:37:19.004Z,98.70
2022-12-28T03:39:53.082Z,98.60
2022-12-28T03:42:47.762Z,98.60
2022-12-28T03:45:46.457Z,98.60
2022-12-28T03:48:11.868Z,98.60
2022-12-28T03:50:44.939Z,98.60
2022-12-28T03:53:17.472Z,98.50
2022-12-28T03:55:49.581Z,98.60
2022-12-28T03:58:24.917Z,98.60
2022-12-28T04:00:55.217Z,98.40
2022-12-28T04:03:23.806Z,98.50
2022-12-28T04:05:57.352Z,98.50
2022-12-28T04:08:34.923Z,98.50
2022-12-28T04:11:12.649Z,98.40
2022-12-28T04:13:49.155Z,98.40
2022-12-28T04:16:19.637Z,98.40
2022-12-28T04:18:52.871Z,98.40
2022-12-28T04:21:23.639Z,98.40
2022-12-28T04:23:53.874Z,98.40
2022-12-28T04:26:22.542Z,98.70
2022-12-28T04:28:50.793Z,98.40
2022-12-28T04:31:26.752Z,98.40
2022-12-28T04:33:58.178Z,98.50
2022-12-28T04:36:36.947Z,98.40
2022-12-28T04:39:07.463Z,98.40
2022-12-28T04:41:53.446Z,98.50
2022-12-28T04:44:24.449Z,98.40
2022-12-28T04:46:54.540Z,98.40
2022-12-28T04:49:26.003Z,98.40
2022-12-28T04:51:54.348Z,98.40
2022-12-28T04:54:25.445Z,98.40
2022-12-28T04:57:00.971Z,98.40
2022-12-28T04:59:30.553Z,98.40
2022-12-28T05:02:04.174Z,98.40
2022-12-28T05:04:36.508Z,98.40
2022-12-28T05:07:05.068Z,98.40
2022-12-28T05:09:39.284Z,98.40
2022-12-28T05:12:08.046Z,98.40
2022-12-28T05:14:43.085Z,98.40
2022-12-28T05:17:13.372Z,98.40
2022-12-28T05:19:41.886Z,98.40
2022-12-28T05:22:13.140Z,98.30
2022-12-28T05:24:46.420Z,98.40
2022-12-28T05:27:17.883Z,98.40
2022-12-28T05:29:46.773Z,98.40
2022-12-28T05:32:15.339Z,98.40
2022-12-28T05:34:45.617Z,98.40
2022-12-28T05:37:18.620Z,98.40
2022-12-28T05:39:53.085Z,98.40
2022-12-28T05:42:21.467Z,98.30
2022-12-28T05:44:52.539Z,98.40
2022-12-28T05:47:21.018Z,98.30
2022-12-28T05:49:50.924Z,98.70
2022-12-28T05:52:20.619Z,98.40
2022-12-28T05:54:49.117Z,98.30
2022-12-28T05:57:33.941Z,98.40
2022-12-28T06:00:07.383Z,98.30
2022-12-28T06:02:37.137Z,98.30
2022-12-28T06:05:11.653Z,98.40
2022-12-28T06:07:40.055Z,98.30
2022-12-28T06:10:10.731Z,98.30
2022-12-28T06:12:44.005Z,98.40
2022-12-28T06:15:16.875Z,98.30
2022-12-28T06:17:47.782Z,98.40
2022-12-28T06:20:18.192Z,98.30
2022-12-28T06:22:46.666Z,98.30
2022-12-28T06:25:15.546Z,98.30
2022-12-28T06:27:47.476Z,98.30
2022-12-28T06:30:16.468Z,98.40
2022-12-28T06:32:44.801Z,98.40
2022-12-28T06:35:22.428Z,98.30
2022-12-28T06:37:52.555Z,98.40
2022-12-28T06:40:39.490Z,98.40
2022-12-28T06:43:16.759Z,98.50
2022-12-28T06:45:47.526Z,98.60
2022-12-28T06:48:20.469Z,98.40
2022-12-28T06:50:58.955Z,98.70
2022-12-28T06:53:30.910Z,98.40
2022-12-28T06:56:15.147Z,98.50
2022-12-28T06:58:46.311Z,98.50
2022-12-28T07:01:21.675Z,98.90
2022-12-28T07:03:52.576Z,98.70
2022-12-28T07:06:28.340Z,98.70
2022-12-28T07:09:03.292Z,98.80
2022-12-28T07:11:33.423Z,98.70
2022-12-28T07:14:09.618Z,99.10
2022-12-28T07:16:54.728Z,98.70
2022-12-28T07:19:27.257Z,98.70
2022-12-28T07:21:55.834Z,98.70
2022-12-28T07:24:25.586Z,98.70
2022-12-28T07:26:53.975Z,98.70
2022-12-28T07:29:26.099Z,98.60
2022-12-28T07:31:54.587Z,98.70
2022-12-28T07:34:27.758Z,98.70
2022-12-28T07:37:06.259Z,98.60
2022-12-28T07:39:36.216Z,98.60
2022-12-28T07:42:12.260Z,98.60
2022-12-28T07:44:49.106Z,98.70
2022-12-28T07:47:47.931Z,98.70
2022-12-28T07:50:20.628Z,98.70
2022-12-28T07:52:57.175Z,98.70
2022-12-28T07:55:40.548Z,98.80
2022-12-28T07:58:08.993Z,98.90
2022-12-28T08:00:40.911Z,98.80
2022-12-28T08:03:25.275Z,98.80
2022-12-28T08:05:57.297Z,98.80
2022-12-28T08:08:33.750Z,98.90
2022-12-28T08:11:07.014Z,98.80
2022-12-28T08:13:47.452Z,98.80
2022-12-28T08:16:27.176Z,98.70
2022-12-28T08:21:55.000Z,98.90
2022-12-28T08:24:40.002Z,98.90
2022-12-28T08:27:08.530Z,98.90
2022-12-28T08:29:36.734Z,98.80
2022-12-28T08:32:08.900Z,98.80
2022-12-28T08:34:39.175Z,98.90
2022-12-28T08:37:07.592Z,98.90
2022-12-28T08:39:46.330Z,98.80
2022-12-28T08:42:14.677Z,98.90
2022-12-28T08:44:45.427Z,99.00
2022-12-28T08:47:19.170Z,98.90
2022-12-28T08:49:48.866Z,98.90
2022-12-28T08:52:25.717Z,99.00
2022-12-28T08:54:59.334Z,99.10
2022-12-28T08:57:28.842Z,99.00
2022-12-28T08:59:59.216Z,99.00
2022-12-28T09:02:36.082Z,99.10
2022-12-28T09:05:04.827Z,99.10
2022-12-28T09:07:33.120Z,99.40
2022-12-28T09:10:07.063Z,99.20
2022-12-28T09:12:46.338Z,99.10
2022-12-28T09:16:10.853Z,99.20
2022-12-28T09:18:42.295Z,99.10
2022-12-28T09:21:14.666Z,99.00
2022-12-28T09:23:44.327Z,99.20
2022-12-28T09:26:14.285Z,99.20
2022-12-28T09:28:46.946Z,99.10
2022-12-28T09:31:16.170Z,99.20
2022-12-28T09:36:54.676Z,99.20
2022-12-28T09:39:25.184Z,99.10
2022-12-28T09:41:59.268Z,99.20
2022-12-28T09:44:40.034Z,99.20
2022-12-28T09:47:19.782Z,99.10
2022-12-28T09:50:17.649Z,99.20
2022-12-28T09:53:00.791Z,99.20
2022-12-28T09:55:30.167Z,99.20
2022-12-28T09:58:00.896Z,99.20
2022-12-28T10:00:40.823Z,99.20
2022-12-28T10:03:18.196Z,99.10
2022-12-28T10:05:49.455Z,99.20
2022-12-28T10:08:25.483Z,99.20
2022-12-28T10:10:54.890Z,99.30
2022-12-28T10:13:53.771Z,99.30
2022-12-28T10:16:20.297Z,99.20
2022-12-28T10:18:54.180Z,99.30
2022-12-28T10:21:32.932Z,99.20
2022-12-28T10:24:31.257Z,99.20
2022-12-28T10:27:08.944Z,99.20
2022-12-28T10:51:42.795Z,99.30
2022-12-28T10:54:36.756Z,99.20
2022-12-28T10:57:07.907Z,99.20
2022-12-28T10:59:44.149Z,99.20
2022-12-28T11:02:27.485Z,99.20
2022-12-28T11:05:06.342Z,99.20
2022-12-28T11:07:52.038Z,99.00
2022-12-28T11:10:37.642Z,99.10
2022-12-28T11:16:37.542Z,99.20
2022-12-28T11:19:33.443Z,99.10
2022-12-28T11:28:12.201Z,99.00
2022-12-28T11:30:40.743Z,99.00
2022-12-28T11:33:32.237Z,98.80
2022-12-28T11:36:10.098Z,98.90
2022-12-28T11:38:42.008Z,98.90
2022-12-28T11:41:33.733Z,98.90
2022-12-28T11:44:19.638Z,98.80
2022-12-28T11:47:05.802Z,98.80
2022-12-28T11:49:37.921Z,98.70
2022-12-28T11:52:37.241Z,98.70
2022-12-28T11:55:40.943Z,98.80
2022-12-28T11:58:41.855Z,98.70
2022-12-28T12:01:59.898Z,98.60
2022-12-28T12:04:48.313Z,98.60
2022-12-28T12:07:30.575Z,98.60
2022-12-28T12:10:29.015Z,98.60
2022-12-28T12:15:57.799Z,98.60
2022-12-28T12:21:28.805Z,98.60
2022-12-28T12:24:06.332Z,98.60
2022-12-28T12:26:41.866Z,98.60
2022-12-28T12:29:18.164Z,98.60
2022-12-28T12:31:54.590Z,98.70
2022-12-28T12:37:36.917Z,98.60
2022-12-28T12:40:37.564Z,98.60
2022-12-28T13:46:26.095Z,98.60
2022-12-28T13:49:15.942Z,98.60
2022-12-28T13:51:51.297Z,98.60
2022-12-28T13:54:25.185Z,98.60
2022-12-28T13:57:20.517Z,98.50
2022-12-28T13:59:49.013Z,98.60
2022-12-28T14:02:34.207Z,98.50
2022-12-28T14:05:05.765Z,98.50
2022-12-28T14:07:47.709Z,98.50
2022-12-28T14:10:19.438Z,98.80
2022-12-28T14:12:51.335Z,98.50
2022-12-28T14:15:20.943Z,98.50
2022-12-28T14:20:58.656Z,98.50
2022-12-28T14:23:38.797Z,98.40
2022-12-28T14:29:56.647Z,98.40
2022-12-28T14:32:52.900Z,98.40
2022-12-28T14:59:09.358Z,98.40
2022-12-28T15:01:54.500Z,98.40
2022-12-28T15:04:47.699Z,98.40
2022-12-28T15:07:16.327Z,98.50
2022-12-28T15:09:49.044Z,98.50
2022-12-28T15:12:27.937Z,98.50
2022-12-28T15:20:49.627Z,98.50
2022-12-28T15:23:24.702Z,98.50
2022-12-28T15:25:53.641Z,98.40
2022-12-28T15:28:22.221Z,98.50
2022-12-28T15:30:51.331Z,98.60
2022-12-28T15:33:22.468Z,98.90
2022-12-28T15:35:52.714Z,98.60
2022-12-28T15:38:24.181Z,98.60
2022-12-28T15:40:58.369Z,98.60
2022-12-28T15:43:27.422Z,98.60
2022-12-28T15:45:57.510Z,98.60
2022-12-28T15:48:44.135Z,98.60
2022-12-28T15:51:17.303Z,98.60
2022-12-28T15:53:46.139Z,98.70
2022-12-28T15:56:42.247Z,98.70
2022-12-28T15:59:14.485Z,98.70
2022-12-28T16:01:45.449Z,98.70
2022-12-28T16:04:15.998Z,98.60
2022-12-28T16:06:45.433Z,98.60
2022-12-28T16:09:36.995Z,98.60
2022-12-28T16:12:07.905Z,98.60
2022-12-28T16:14:36.596Z,98.60
2022-12-28T16:17:10.816Z,98.70
2022-12-28T16:19:40.638Z,98.60
2022-12-28T16:22:09.393Z,98.70
2022-12-28T16:24:38.060Z,98.60
2022-12-28T16:27:09.881Z,98.60
2022-12-28T16:29:39.895Z,98.70
2022-12-28T16:32:09.303Z,98.70
2022-12-28T16:34:40.387Z,98.70
2022-12-28T16:37:10.888Z,98.80
2022-12-28T16:39:40.781Z,98.80
2022-12-28T16:42:09.319Z,98.70
2022-12-28T16:44:37.752Z,98.80
2022-12-28T16:47:06.932Z,98.70
2022-12-28T16:49:40.784Z,98.70
2022-12-28T16:52:11.399Z,98.70
2022-12-28T16:54:57.190Z,98.60
2022-12-28T16:57:25.610Z,98.60
2022-12-28T17:00:15.146Z,98.60
2022-12-28T17:02:49.122Z,98.60
2022-12-28T17:05:21.920Z,98.60
2022-12-28T17:08:08.432Z,98.60
2022-12-28T17:10:37.147Z,98.60
2022-12-28T17:13:05.463Z,98.60
2022-12-28T17:15:39.950Z,98.60
2022-12-28T17:18:10.263Z,98.50
2022-12-28T17:20:42.203Z,98.50
2022-12-28T17:23:14.650Z,98.60
2022-12-28T17:25:43.410Z,98.60
2022-12-28T17:28:11.707Z,98.60
2022-12-28T17:30:40.069Z,98.60
2022-12-28T17:33:08.911Z,98.60
2022-12-28T17:35:37.335Z,98.50
2022-12-28T17:38:05.734Z,98.50
2022-12-28T17:40:37.978Z,98.60
2022-12-28T17:43:06.696Z,98.50
2022-12-28T17:45:38.943Z,98.50
2022-12-28T17:48:07.412Z,98.50
2022-12-28T17:50:42.606Z,98.50
2022-12-28T17:53:12.237Z,98.50
2022-12-28T17:55:52.361Z,98.50
2022-12-28T17:58:24.666Z,98.50
2022-12-28T18:00:55.505Z,98.50
2022-12-28T18:03:28.540Z,98.50
2022-12-28T18:06:03.329Z,98.50
2022-12-28T18:08:33.123Z,98.60
2022-12-28T18:17:02.995Z,98.60
2022-12-28T18:22:41.628Z,98.50
2022-12-28T18:28:35.923Z,98.50
2022-12-28T18:31:22.814Z,98.50
2022-12-28T18:33:56.156Z,98.50
2022-12-28T18:36:24.788Z,98.60
2022-12-28T18:41:39.945Z,98.50
2022-12-28T18:44:32.237Z,98.60
2022-12-28T18:47:06.195Z,98.60
2022-12-28T18:49:59.189Z,98.60
2022-12-28T18:55:15.294Z,98.60
2022-12-28T18:57:43.718Z,98.60
2022-12-28T19:00:13.475Z,98.60
2022-12-28T19:02:42.028Z,98.70
2022-12-28T19:05:13.159Z,98.70
2022-12-28T19:07:47.247Z,98.60
2022-12-28T19:10:17.764Z,98.70
2022-12-28T19:12:46.683Z,98.70
2022-12-28T19:15:15.780Z,98.70
2022-12-28T19:17:43.930Z,98.80
2022-12-28T19:20:14.871Z,98.70
2022-12-28T19:22:43.268Z,98.80
2022-12-28T19:25:11.890Z,98.80
2022-12-28T19:27:40.323Z,98.80
2022-12-28T19:30:12.307Z,98.80
2022-12-28T19:35:44.809Z,98.80
2022-12-28T19:38:13.319Z,98.80
2022-12-28T19:40:44.099Z,98.80
2022-12-28T19:43:13.084Z,99.20
2022-12-28T19:45:42.923Z,98.80
2022-12-28T19:48:12.065Z,98.80
2022-12-28T19:50:56.984Z,98.70
2022-12-28T19:53:25.605Z,98.80
2022-12-28T19:55:59.504Z,98.80
2022-12-28T20:01:15.103Z,98.80
2022-12-28T20:03:44.827Z,98.70
2022-12-28T20:06:20.494Z,98.70
2022-12-28T20:08:51.858Z,98.70
2022-12-28T20:11:30.117Z,98.80
2022-12-28T20:14:00.920Z,98.70
2022-12-28T20:16:33.601Z,98.70
2022-12-28T20:19:07.116Z,98.70
2022-12-28T20:21:41.550Z,98.70
2022-12-28T20:24:15.706Z,98.70
2022-12-28T20:26:44.349Z,98.70
2022-12-28T20:29:17.447Z,98.70
2022-12-28T20:31:49.670Z,98.70
2022-12-28T20:39:47.876Z,98.60
2022-12-28T20:42:33.751Z,98.70
2022-12-28T20:45:02.788Z,98.70
2022-12-28T20:47:31.915Z,98.60
2022-12-28T20:50:00.742Z,98.70
2022-12-28T20:52:33.560Z,98.60
2022-12-28T20:55:03.543Z,98.60
2022-12-28T21:00:31.225Z,98.70
2022-12-28T21:03:15.104Z,98.60
2022-12-28T21:05:43.549Z,98.60
2022-12-28T21:08:13.735Z,98.60
2022-12-28T21:10:47.730Z,98.50
2022-12-28T21:13:16.059Z,98.60
2022-12-28T21:15:44.512Z,98.60
2022-12-28T21:18:15.190Z,98.60
2022-12-28T21:20:52.219Z,98.50
2022-12-28T21:23:23.114Z,98.60
2022-12-28T21:25:51.587Z,98.60
2022-12-28T21:28:22.256Z,98.60
2022-12-28T21:30:55.433Z,98.60
2022-12-28T21:33:26.501Z,98.70
2022-12-28T21:36:04.306Z,98.70
2022-12-28T21:38:40.295Z,98.60
2022-12-28T21:41:11.551Z,98.60
2022-12-28T21:43:43.934Z,98.70
2022-12-28T21:46:15.324Z,98.70
2022-12-28T21:48:45.164Z,98.70
2022-12-28T21:51:32.093Z,98.70
2022-12-28T21:54:09.557Z,98.70
2022-12-28T21:56:38.562Z,98.70
2022-12-28T21:59:11.314Z,98.70
2022-12-28T22:01:58.987Z,98.60
2022-12-28T22:04:44.998Z,98.60
2022-12-28T22:07:15.353Z,98.70
2022-12-28T22:10:04.493Z,98.70
2022-12-28T22:12:38.009Z,98.70
2022-12-28T22:15:26.847Z,98.80
2022-12-28T22:18:02.682Z,98.70
2022-12-28T22:20:32.252Z,98.70
2022-12-28T22:23:03.696Z,98.70
2022-12-28T22:25:34.020Z,98.70
2022-12-28T22:28:02.826Z,98.70
2022-12-28T22:30:32.719Z,98.60
2022-12-28T22:33:02.947Z,98.60
2022-12-28T22:35:31.703Z,98.70
2022-12-28T22:38:03.405Z,98.70
2022-12-28T22:40:33.785Z,98.60
2022-12-28T22:43:11.223Z,98.60
2022-12-28T22:45:39.585Z,98.70
2022-12-28T22:48:11.943Z,98.70
2022-12-28T22:50:43.285Z,98.70
2022-12-28T22:53:14.715Z,98.70
2022-12-28T22:55:47.562Z,98.80
2022-12-28T22:58:15.854Z,98.70
2022-12-28T23:00:44.309Z,98.80
2022-12-28T23:03:12.650Z,98.80
2022-12-28T23:05:41.362Z,98.80
2022-12-28T23:08:09.820Z,98.80
2022-12-28T23:10:39.371Z,98.70
2022-12-28T23:13:11.314Z,98.70
2022-12-28T23:15:38.688Z,98.90
2022-12-28T23:18:22.166Z,98.80
2022-12-28T23:21:07.563Z,98.90
2022-12-28T23:23:53.241Z,98.90
2022-12-28T23:26:38.855Z,98.80
2022-12-28T23:29:10.651Z,98.90
2022-12-28T23:31:38.999Z,98.90
2022-12-28T23:34:07.211Z,98.90
2022-12-28T23:36:36.537Z,98.90
2022-12-28T23:39:05.109Z,99.00
2022-12-28T23:41:51.502Z,98.90
2022-12-28T23:44:28.886Z,98.80
2022-12-28T23:46:59.631Z,98.90
2022-12-28T23:49:29.901Z,98.90
2022-12-28T23:51:58.046Z,98.80
2022-12-28T23:54:26.447Z,98.90
2022-12-28T23:56:57.776Z,98.80
2022-12-28T23:59:28.079Z,98.80
